sensor_id;sensor_type;location;lat;lon;timestamp;pressure;altitude;pressure_sealevel;temperature;humidity
64739;BME280;51175;51.186;0.276;2023-07-16T00:00:28;100150.09;;;22.28;55.39
64739;BME280;51175;51.186;0.276;2023-07-16T00:00:59;100146.25;;;22.29;55.51
64739;BME280;51175;51.186;0.276;2023-07-16T00:01:29;100142.03;;;22.28;55.68
64739;BME280;51175;51.186;0.276;2023-07-16T00:02:00;100158.16;;;22.28;55.42
64739;BME280;51175;51.186;0.276;2023-07-16T00:02:30;100143.56;;;22.29;55.32
64739;BME280;51175;51.186;0.276;2023-07-16T00:03:00;100148.19;;;22.29;55.42
64739;BME280;51175;51.186;0.276;2023-07-16T00:03:31;100147.41;;;22.28;55.50
64739;BME280;51175;51.186;0.276;2023-07-16T00:04:01;100148.94;;;22.29;55.65
64739;BME280;51175;51.186;0.276;2023-07-16T00:04:32;100150.09;;;22.28;55.47
64739;BME280;51175;51.186;0.276;2023-07-16T00:05:03;100146.59;;;22.28;55.70
64739;BME280;51175;51.186;0.276;2023-07-16T00:05:36;100150.09;;;22.28;55.55
64739;BME280;51175;51.186;0.276;2023-07-16T00:06:06;100156.59;;;22.27;55.33
64739;BME280;51175;51.186;0.276;2023-07-16T00:06:37;100145.84;;;22.27;55.47
64739;BME280;51175;51.186;0.276;2023-07-16T00:07:07;100156.59;;;22.27;55.47
64739;BME280;51175;51.186;0.276;2023-07-16T00:07:37;100151.22;;;22.27;55.41
64739;BME280;51175;51.186;0.276;2023-07-16T00:08:08;100145.06;;;22.27;55.48
64739;BME280;51175;51.186;0.276;2023-07-16T00:08:38;100158.50;;;22.27;55.51
64739;BME280;51175;51.186;0.276;2023-07-16T00:09:08;100150.44;;;22.27;55.42
64739;BME280;51175;51.186;0.276;2023-07-16T00:09:39;100160.41;;;22.26;55.61
64739;BME280;51175;51.186;0.276;2023-07-16T00:10:09;100145.84;;;22.27;55.49
64739;BME280;51175;51.186;0.276;2023-07-16T00:10:40;100151.22;;;22.27;55.52
64739;BME280;51175;51.186;0.276;2023-07-16T00:11:10;100149.66;;;22.26;55.33
64739;BME280;51175;51.186;0.276;2023-07-16T00:11:40;100150.44;;;22.27;55.56
64739;BME280;51175;51.186;0.276;2023-07-16T00:12:11;100151.56;;;22.26;55.42
64739;BME280;51175;51.186;0.276;2023-07-16T00:12:41;100151.22;;;22.27;55.69
64739;BME280;51175;51.186;0.276;2023-07-16T00:13:11;100156.97;;;22.26;55.57
64739;BME280;51175;51.186;0.276;2023-07-16T00:13:42;100155.03;;;22.26;55.93
64739;BME280;51175;51.186;0.276;2023-07-16T00:14:17;100152.34;;;22.26;55.40
64739;BME280;51175;51.186;0.276;2023-07-16T00:14:48;100156.97;;;22.26;55.44
64739;BME280;51175;51.186;0.276;2023-07-16T00:15:18;100147.31;;;22.25;55.51
64739;BME280;51175;51.186;0.276;2023-07-16T00:15:48;100145.41;;;22.25;55.61
64739;BME280;51175;51.186;0.276;2023-07-16T00:16:19;100149.22;;;22.24;55.49
64739;BME280;51175;51.186;0.276;2023-07-16T00:16:49;100147.31;;;22.25;55.45
64739;BME280;51175;51.186;0.276;2023-07-16T00:17:19;100152.69;;;22.25;55.33
64739;BME280;51175;51.186;0.276;2023-07-16T00:17:50;100160.75;;;22.25;55.59
64739;BME280;51175;51.186;0.276;2023-07-16T00:18:20;100153.47;;;22.25;55.61
64739;BME280;51175;51.186;0.276;2023-07-16T00:18:51;100150.00;;;22.25;55.52
64739;BME280;51175;51.186;0.276;2023-07-16T00:19:24;100157.31;;;22.24;55.58
64739;BME280;51175;51.186;0.276;2023-07-16T00:19:54;100158.84;;;22.25;55.79
64739;BME280;51175;51.186;0.276;2023-07-16T00:20:25;100158.06;;;22.25;55.60
64739;BME280;51175;51.186;0.276;2023-07-16T00:20:55;100153.47;;;22.25;55.70
64739;BME280;51175;51.186;0.276;2023-07-16T00:21:26;100157.31;;;22.24;55.38
64739;BME280;51175;51.186;0.276;2023-07-16T00:21:56;100161.53;;;22.25;55.67
64739;BME280;51175;51.186;0.276;2023-07-16T00:22:26;100159.19;;;22.24;55.57
64739;BME280;51175;51.186;0.276;2023-07-16T00:22:57;100151.13;;;22.24;55.51
64739;BME280;51175;51.186;0.276;2023-07-16T00:23:27;100151.47;;;22.22;55.52
64739;BME280;51175;51.186;0.276;2023-07-16T00:23:58;100152.28;;;22.23;55.53
64739;BME280;51175;51.186;0.276;2023-07-16T00:24:29;100144.19;;;22.23;55.75
64739;BME280;51175;51.186;0.276;2023-07-16T00:24:59;100157.66;;;22.23;55.42
64739;BME280;51175;51.186;0.276;2023-07-16T00:25:29;100156.84;;;22.22;55.53
64739;BME280;51175;51.186;0.276;2023-07-16T00:26:00;100153.38;;;22.22;55.43
64739;BME280;51175;51.186;0.276;2023-07-16T00:26:33;100149.59;;;22.23;55.52
64739;BME280;51175;51.186;0.276;2023-07-16T00:27:03;100151.47;;;22.22;55.66
64739;BME280;51175;51.186;0.276;2023-07-16T00:27:34;100149.13;;;22.20;55.58
64739;BME280;51175;51.186;0.276;2023-07-16T00:28:04;100155.31;;;22.21;55.81
64739;BME280;51175;51.186;0.276;2023-07-16T00:28:34;100146.44;;;22.20;55.79
64739;BME280;51175;51.186;0.276;2023-07-16T00:29:05;100160.69;;;22.21;55.63
64739;BME280;51175;51.186;0.276;2023-07-16T00:29:35;100158.00;;;22.21;55.69
64739;BME280;51175;51.186;0.276;2023-07-16T00:30:07;100161.44;;;22.22;55.80
64739;BME280;51175;51.186;0.276;2023-07-16T00:30:38;100157.22;;;22.20;55.59
64739;BME280;51175;51.186;0.276;2023-07-16T00:31:09;100162.59;;;22.20;55.78
64739;BME280;51175;51.186;0.276;2023-07-16T00:31:40;100167.97;;;22.20;55.77
64739;BME280;51175;51.186;0.276;2023-07-16T00:32:11;100158.34;;;22.19;55.67
64739;BME280;51175;51.186;0.276;2023-07-16T00:32:41;100159.91;;;22.20;55.72
64739;BME280;51175;51.186;0.276;2023-07-16T00:33:11;100151.03;;;22.20;55.60
64739;BME280;51175;51.186;0.276;2023-07-16T00:33:42;100151.03;;;22.20;55.81
64739;BME280;51175;51.186;0.276;2023-07-16T00:34:12;100159.09;;;22.20;55.78
64739;BME280;51175;51.186;0.276;2023-07-16T00:34:43;100157.56;;;22.19;55.66
64739;BME280;51175;51.186;0.276;2023-07-16T00:35:13;100165.28;;;22.20;55.75
64739;BME280;51175;51.186;0.276;2023-07-16T00:35:48;100160.25;;;22.19;55.37
64739;BME280;51175;51.186;0.276;2023-07-16T00:36:19;100154.88;;;22.19;55.47
64739;BME280;51175;51.186;0.276;2023-07-16T00:36:50;100158.69;;;22.18;55.68
64739;BME280;51175;51.186;0.276;2023-07-16T00:37:20;100163.28;;;22.17;55.76
64739;BME280;51175;51.186;0.276;2023-07-16T00:37:51;100159.47;;;22.18;55.39
64739;BME280;51175;51.186;0.276;2023-07-16T00:38:21;100162.16;;;22.18;55.85
64739;BME280;51175;51.186;0.276;2023-07-16T00:38:52;100160.25;;;22.19;55.71
64739;BME280;51175;51.186;0.276;2023-07-16T00:39:22;100164.06;;;22.18;55.83
64739;BME280;51175;51.186;0.276;2023-07-16T00:39:53;100141.78;;;22.17;55.72
64739;BME280;51175;51.186;0.276;2023-07-16T00:40:23;100158.34;;;22.19;55.88
64739;BME280;51175;51.186;0.276;2023-07-16T00:40:54;100154.88;;;22.19;55.65
64739;BME280;51175;51.186;0.276;2023-07-16T00:41:24;100162.94;;;22.19;55.73
64739;BME280;51175;51.186;0.276;2023-07-16T00:41:55;100154.06;;;22.18;55.86
64739;BME280;51175;51.186;0.276;2023-07-16T00:42:25;100164.84;;;22.18;55.88
64739;BME280;51175;51.186;0.276;2023-07-16T00:42:56;100154.88;;;22.19;55.65
64739;BME280;51175;51.186;0.276;2023-07-16T00:43:26;100156.75;;;22.18;55.74
64739;BME280;51175;51.186;0.276;2023-07-16T00:43:56;100161.38;;;22.18;55.72
64739;BME280;51175;51.186;0.276;2023-07-16T00:44:27;100156.00;;;22.18;55.77
64739;BME280;51175;51.186;0.276;2023-07-16T00:44:57;100157.91;;;22.17;55.72
64739;BME280;51175;51.186;0.276;2023-07-16T00:45:28;100155.22;;;22.17;55.86
64739;BME280;51175;51.186;0.276;2023-07-16T00:45:58;100160.59;;;22.17;55.75
64739;BME280;51175;51.186;0.276;2023-07-16T00:46:29;100151.72;;;22.17;55.51
64739;BME280;51175;51.186;0.276;2023-07-16T00:46:59;100158.69;;;22.18;55.60
64739;BME280;51175;51.186;0.276;2023-07-16T00:47:30;100154.44;;;22.17;55.77
64739;BME280;51175;51.186;0.276;2023-07-16T00:48:00;100154.44;;;22.17;55.70
64739;BME280;51175;51.186;0.276;2023-07-16T00:48:31;100151.72;;;22.17;55.69
64739;BME280;51175;51.186;0.276;2023-07-16T00:49:02;100157.13;;;22.17;55.66
64739;BME280;51175;51.186;0.276;2023-07-16T00:49:32;100158.25;;;22.16;55.69
64739;BME280;51175;51.186;0.276;2023-07-16T00:50:03;100154.78;;;22.15;55.72
64739;BME280;51175;51.186;0.276;2023-07-16T00:50:34;100149.41;;;22.15;55.89
64739;BME280;51175;51.186;0.276;2023-07-16T00:51:09;100157.81;;;22.14;55.85
64739;BME280;51175;51.186;0.276;2023-07-16T00:51:40;100161.28;;;22.14;55.62
64739;BME280;51175;51.186;0.276;2023-07-16T00:52:16;100157.81;;;22.14;55.85
64739;BME280;51175;51.186;0.276;2023-07-16T00:52:46;100157.81;;;22.14;55.83
64739;BME280;51175;51.186;0.276;2023-07-16T00:53:17;100158.59;;;22.14;55.78
64739;BME280;51175;51.186;0.276;2023-07-16T00:53:50;100154.34;;;22.13;55.81
64739;BME280;51175;51.186;0.276;2023-07-16T00:54:21;100163.19;;;22.14;55.57
64739;BME280;51175;51.186;0.276;2023-07-16T00:54:52;100162.41;;;22.13;55.79
64739;BME280;51175;51.186;0.276;2023-07-16T00:55:23;100155.13;;;22.14;55.92
64739;BME280;51175;51.186;0.276;2023-07-16T00:55:53;100152.78;;;22.12;55.63
64739;BME280;51175;51.186;0.276;2023-07-16T00:56:24;100158.94;;;22.13;55.74
64739;BME280;51175;51.186;0.276;2023-07-16T00:56:55;100165.13;;;22.13;55.65
64739;BME280;51175;51.186;0.276;2023-07-16T00:57:25;100177.75;;;22.13;55.86
64739;BME280;51175;51.186;0.276;2023-07-16T00:58:00;100167.00;;;22.13;55.67
64739;BME280;51175;51.186;0.276;2023-07-16T00:58:32;100167.81;;;22.13;55.82
64739;BME280;51175;51.186;0.276;2023-07-16T00:59:03;100175.06;;;22.13;55.90
64739;BME280;51175;51.186;0.276;2023-07-16T00:59:33;100160.84;;;22.12;56.08
64739;BME280;51175;51.186;0.276;2023-07-16T01:00:04;100155.47;;;22.12;55.88
64739;BME280;51175;51.186;0.276;2023-07-16T01:00:37;100160.84;;;22.12;56.08
64739;BME280;51175;51.186;0.276;2023-07-16T01:01:07;100161.97;;;22.11;56.04
64739;BME280;51175;51.186;0.276;2023-07-16T01:01:39;100164.31;;;22.13;55.68
64739;BME280;51175;51.186;0.276;2023-07-16T01:02:10;100164.31;;;22.13;55.89
64739;BME280;51175;51.186;0.276;2023-07-16T01:02:40;100180.47;;;22.13;55.94
64739;BME280;51175;51.186;0.276;2023-07-16T01:03:14;100161.63;;;22.13;55.92
64739;BME280;51175;51.186;0.276;2023-07-16T01:03:44;100166.22;;;22.12;56.07
64739;BME280;51175;51.186;0.276;2023-07-16T01:04:15;100169.69;;;22.13;56.03
64739;BME280;51175;51.186;0.276;2023-07-16T01:04:46;100176.63;;;22.14;56.00
64739;BME280;51175;51.186;0.276;2023-07-16T01:05:17;100166.22;;;22.12;56.02
64739;BME280;51175;51.186;0.276;2023-07-16T01:06:00;100176.63;;;22.14;55.92
64739;BME280;51175;51.186;0.276;2023-07-16T01:06:43;100170.50;;;22.13;55.75
64739;BME280;51175;51.186;0.276;2023-07-16T01:07:15;100182.34;;;22.12;55.83
64739;BME280;51175;51.186;0.276;2023-07-16T01:07:55;100169.69;;;22.13;55.75
64739;BME280;51175;51.186;0.276;2023-07-16T01:08:48;100171.19;;;22.10;55.48
64739;BME280;51175;51.186;0.276;2023-07-16T01:09:20;100173.88;;;22.10;55.84
64739;BME280;51175;51.186;0.276;2023-07-16T01:09:51;100175.78;;;22.10;56.02
64739;BME280;51175;51.186;0.276;2023-07-16T01:10:25;100173.88;;;22.10;56.17
64739;BME280;51175;51.186;0.276;2023-07-16T01:10:55;100175.78;;;22.10;55.95
64739;BME280;51175;51.186;0.276;2023-07-16T01:11:26;100175.78;;;22.10;55.80
64739;BME280;51175;51.186;0.276;2023-07-16T01:11:57;100170.41;;;22.10;55.78
64739;BME280;51175;51.186;0.276;2023-07-16T01:12:31;100173.09;;;22.10;55.78
64739;BME280;51175;51.186;0.276;2023-07-16T01:13:02;100171.53;;;22.08;55.81
64739;BME280;51175;51.186;0.276;2023-07-16T01:13:34;100173.09;;;22.10;55.82
64739;BME280;51175;51.186;0.276;2023-07-16T01:14:05;100177.66;;;22.09;56.04
64739;BME280;51175;51.186;0.276;2023-07-16T01:14:38;100176.56;;;22.10;56.01
64739;BME280;51175;51.186;0.276;2023-07-16T01:15:09;100178.47;;;22.10;55.89
64739;BME280;51175;51.186;0.276;2023-07-16T01:15:40;100174.22;;;22.08;55.81
64739;BME280;51175;51.186;0.276;2023-07-16T01:16:23;100174.97;;;22.09;55.88
64739;BME280;51175;51.186;0.276;2023-07-16T01:16:54;100174.22;;;22.08;55.84
64739;BME280;51175;51.186;0.276;2023-07-16T01:17:28;100175.31;;;22.07;56.06
64739;BME280;51175;51.186;0.276;2023-07-16T01:17:59;100175.31;;;22.07;55.83
64739;BME280;51175;51.186;0.276;2023-07-16T01:18:30;100179.16;;;22.06;56.06
64739;BME280;51175;51.186;0.276;2023-07-16T01:19:00;100185.31;;;22.07;56.07
64739;BME280;51175;51.186;0.276;2023-07-16T01:19:31;100179.94;;;22.07;55.85
64739;BME280;51175;51.186;0.276;2023-07-16T01:20:01;100174.56;;;22.07;55.75
64739;BME280;51175;51.186;0.276;2023-07-16T01:20:31;100182.63;;;22.07;55.82
64739;BME280;51175;51.186;0.276;2023-07-16T01:21:02;100188.00;;;22.07;55.92
64739;BME280;51175;51.186;0.276;2023-07-16T01:21:37;100191.47;;;22.07;56.08
64739;BME280;51175;51.186;0.276;2023-07-16T01:28:05;100198.22;;;22.01;56.24
64739;BME280;51175;51.186;0.276;2023-07-16T01:29:13;100199.69;;;21.99;55.92
64739;BME280;51175;51.186;0.276;2023-07-16T01:29:51;100196.56;;;21.97;56.16
64739;BME280;51175;51.186;0.276;2023-07-16T01:30:26;100200.03;;;21.97;56.06
64739;BME280;51175;51.186;0.276;2023-07-16T01:30:58;100196.56;;;21.97;56.44
64739;BME280;51175;51.186;0.276;2023-07-16T01:31:29;100199.25;;;21.97;56.54
64739;BME280;51175;51.186;0.276;2023-07-16T01:32:00;100202.72;;;21.97;56.21
64739;BME280;51175;51.186;0.276;2023-07-16T01:32:33;100200.81;;;21.98;56.23
64739;BME280;51175;51.186;0.276;2023-07-16T01:33:04;100187.38;;;21.98;56.22
64739;BME280;51175;51.186;0.276;2023-07-16T01:33:35;100200.81;;;21.98;56.05
64739;BME280;51175;51.186;0.276;2023-07-16T01:34:08;100200.81;;;21.98;56.25
64739;BME280;51175;51.186;0.276;2023-07-16T01:34:40;100203.50;;;21.98;56.29
64739;BME280;51175;51.186;0.276;2023-07-16T01:35:12;100197.34;;;21.97;56.23
64739;BME280;51175;51.186;0.276;2023-07-16T01:35:44;100196.56;;;21.97;56.23
64739;BME280;51175;51.186;0.276;2023-07-16T01:36:18;100194.66;;;21.97;56.07
64739;BME280;51175;51.186;0.276;2023-07-16T01:36:49;100190.41;;;21.96;56.23
64739;BME280;51175;51.186;0.276;2023-07-16T01:37:20;100195.78;;;21.96;56.02
64739;BME280;51175;51.186;0.276;2023-07-16T01:37:50;100202.72;;;21.97;56.26
64739;BME280;51175;51.186;0.276;2023-07-16T01:38:21;100193.53;;;21.98;55.88
64739;BME280;51175;51.186;0.276;2023-07-16T01:38:53;100197.34;;;21.97;56.31
64739;BME280;51175;51.186;0.276;2023-07-16T01:39:24;100200.81;;;21.98;56.34
64739;BME280;51175;51.186;0.276;2023-07-16T01:39:55;100192.75;;;21.98;56.12
64739;BME280;51175;51.186;0.276;2023-07-16T01:40:25;100194.66;;;21.97;55.97
64739;BME280;51175;51.186;0.276;2023-07-16T01:40:55;100200.81;;;21.98;56.24
64739;BME280;51175;51.186;0.276;2023-07-16T01:41:26;100206.19;;;21.98;56.25
64739;BME280;51175;51.186;0.276;2023-07-16T01:41:56;100203.50;;;21.98;56.27
64739;BME280;51175;51.186;0.276;2023-07-16T01:42:27;100199.69;;;21.99;56.22
64739;BME280;51175;51.186;0.276;2023-07-16T01:42:57;100197.34;;;21.97;56.06
64739;BME280;51175;51.186;0.276;2023-07-16T01:43:27;100200.81;;;21.98;56.26
64739;BME280;51175;51.186;0.276;2023-07-16T01:43:58;100191.63;;;21.99;56.16
64739;BME280;51175;51.186;0.276;2023-07-16T01:44:29;100188.94;;;21.99;55.94
64739;BME280;51175;51.186;0.276;2023-07-16T01:44:59;100195.88;;;22.00;56.07
64739;BME280;51175;51.186;0.276;2023-07-16T01:45:29;100203.16;;;21.99;55.95
64739;BME280;51175;51.186;0.276;2023-07-16T01:46:00;100193.53;;;21.98;56.03
64739;BME280;51175;51.186;0.276;2023-07-16T01:46:31;100200.47;;;21.99;56.12
64739;BME280;51175;51.186;0.276;2023-07-16T01:47:11;100200.47;;;21.99;55.92
64739;BME280;51175;51.186;0.276;2023-07-16T01:48:49;100196.22;;;21.98;56.20
64739;BME280;51175;51.186;0.276;2023-07-16T01:49:19;100193.53;;;21.98;56.12
64739;BME280;51175;51.186;0.276;2023-07-16T01:49:50;100196.22;;;21.98;56.06
64739;BME280;51175;51.186;0.276;2023-07-16T01:50:20;100194.31;;;21.99;56.12
64739;BME280;51175;51.186;0.276;2023-07-16T01:50:50;100193.53;;;21.98;56.24
64739;BME280;51175;51.186;0.276;2023-07-16T01:51:21;100200.47;;;21.99;55.79
64739;BME280;51175;51.186;0.276;2023-07-16T01:51:51;100193.53;;;21.98;55.93
64739;BME280;51175;51.186;0.276;2023-07-16T01:52:22;100199.69;;;21.99;56.08
64739;BME280;51175;51.186;0.276;2023-07-16T01:52:52;100201.59;;;21.98;55.95
64739;BME280;51175;51.186;0.276;2023-07-16T01:53:22;100196.22;;;21.98;55.87
64739;BME280;51175;51.186;0.276;2023-07-16T01:53:53;100198.13;;;21.98;56.22
64739;BME280;51175;51.186;0.276;2023-07-16T01:54:23;100198.91;;;21.98;55.95
64739;BME280;51175;51.186;0.276;2023-07-16T01:54:53;100202.38;;;21.99;56.11
64739;BME280;51175;51.186;0.276;2023-07-16T01:55:24;100197.00;;;21.99;55.93
64739;BME280;51175;51.186;0.276;2023-07-16T01:55:54;100198.13;;;21.98;56.05
64739;BME280;51175;51.186;0.276;2023-07-16T01:56:25;100198.91;;;21.98;55.94
64739;BME280;51175;51.186;0.276;2023-07-16T01:56:55;100192.75;;;21.98;55.98
64739;BME280;51175;51.186;0.276;2023-07-16T01:57:25;100198.13;;;21.98;55.94
64739;BME280;51175;51.186;0.276;2023-07-16T01:57:56;100198.13;;;21.98;55.85
64739;BME280;51175;51.186;0.276;2023-07-16T01:58:26;100195.44;;;21.98;56.07
64739;BME280;51175;51.186;0.276;2023-07-16T01:58:56;100197.00;;;21.99;56.00
64739;BME280;51175;51.186;0.276;2023-07-16T01:59:27;100200.81;;;21.98;55.98
64739;BME280;51175;51.186;0.276;2023-07-16T01:59:57;100202.72;;;21.97;56.03
64739;BME280;51175;51.186;0.276;2023-07-16T02:00:28;100202.72;;;21.97;55.93
64739;BME280;51175;51.186;0.276;2023-07-16T02:00:58;100202.72;;;21.97;55.83
64739;BME280;51175;51.186;0.276;2023-07-16T02:01:28;100210.78;;;21.97;56.08
64739;BME280;51175;51.186;0.276;2023-07-16T02:01:59;100208.09;;;21.97;55.78
64739;BME280;51175;51.186;0.276;2023-07-16T02:02:30;100210.78;;;21.97;55.92
64739;BME280;51175;51.186;0.276;2023-07-16T02:03:00;100205.41;;;21.97;55.78
64739;BME280;51175;51.186;0.276;2023-07-16T02:03:30;100215.38;;;21.97;55.84
64739;BME280;51175;51.186;0.276;2023-07-16T02:04:01;100209.22;;;21.96;55.93
64739;BME280;51175;51.186;0.276;2023-07-16T02:04:31;100208.09;;;21.97;55.97
64739;BME280;51175;51.186;0.276;2023-07-16T02:05:01;100210.78;;;21.97;56.01
64739;BME280;51175;51.186;0.276;2023-07-16T02:05:32;100202.72;;;21.97;56.06
64739;BME280;51175;51.186;0.276;2023-07-16T02:06:02;100212.69;;;21.97;56.06
64739;BME280;51175;51.186;0.276;2023-07-16T02:06:32;100207.31;;;21.97;55.97
64739;BME280;51175;51.186;0.276;2023-07-16T02:07:03;100208.88;;;21.98;55.76
64739;BME280;51175;51.186;0.276;2023-07-16T02:07:33;100216.94;;;21.98;55.77
64739;BME280;51175;51.186;0.276;2023-07-16T02:08:04;100206.97;;;21.98;55.73
64739;BME280;51175;51.186;0.276;2023-07-16T02:08:34;100216.94;;;21.98;55.82
64739;BME280;51175;51.186;0.276;2023-07-16T02:09:04;100216.94;;;21.98;55.83
64739;BME280;51175;51.186;0.276;2023-07-16T02:09:35;100207.31;;;21.97;55.99
64739;BME280;51175;51.186;0.276;2023-07-16T02:10:06;100209.22;;;21.96;56.05
64739;BME280;51175;51.186;0.276;2023-07-16T02:10:36;100216.94;;;21.98;55.88
64739;BME280;51175;51.186;0.276;2023-07-16T02:11:06;100208.09;;;21.97;55.87
64739;BME280;51175;51.186;0.276;2023-07-16T02:11:37;100216.94;;;21.98;55.82
64739;BME280;51175;51.186;0.276;2023-07-16T02:12:07;100216.94;;;21.98;55.85
64739;BME280;51175;51.186;0.276;2023-07-16T02:12:38;100214.59;;;21.96;55.83
64739;BME280;51175;51.186;0.276;2023-07-16T02:13:08;100218.06;;;21.97;55.81
64739;BME280;51175;51.186;0.276;2023-07-16T02:13:38;100212.69;;;21.97;55.69
64739;BME280;51175;51.186;0.276;2023-07-16T02:14:09;100218.06;;;21.97;55.81
64739;BME280;51175;51.186;0.276;2023-07-16T02:14:39;100224.25;;;21.97;55.65
64739;BME280;51175;51.186;0.276;2023-07-16T02:15:09;100220.75;;;21.97;55.98
64739;BME280;51175;51.186;0.276;2023-07-16T02:15:40;100218.88;;;21.97;55.73
64739;BME280;51175;51.186;0.276;2023-07-16T02:16:10;100222.66;;;21.96;55.73
64739;BME280;51175;51.186;0.276;2023-07-16T02:16:41;100226.47;;;21.95;55.94
64739;BME280;51175;51.186;0.276;2023-07-16T02:17:11;100221.09;;;21.95;55.88
64739;BME280;51175;51.186;0.276;2023-07-16T02:18:12;100223.00;;;21.94;55.97
64739;BME280;51175;51.186;0.276;2023-07-16T02:18:42;100231.06;;;21.94;55.53
64739;BME280;51175;51.186;0.276;2023-07-16T02:19:12;100223.00;;;21.94;55.74
64739;BME280;51175;51.186;0.276;2023-07-16T02:20:13;100221.44;;;21.93;55.81
64739;BME280;51175;51.186;0.276;2023-07-16T02:20:44;100236.44;;;21.94;55.77
64739;BME280;51175;51.186;0.276;2023-07-16T02:21:14;100225.28;;;21.92;55.75
64739;BME280;51175;51.186;0.276;2023-07-16T02:21:45;100233.75;;;21.94;55.85
64739;BME280;51175;51.186;0.276;2023-07-16T02:22:17;100231.06;;;21.94;55.65
64739;BME280;51175;51.186;0.276;2023-07-16T02:22:48;100233.34;;;21.92;56.00
64739;BME280;51175;51.186;0.276;2023-07-16T02:23:18;100229.50;;;21.93;55.82
64739;BME280;51175;51.186;0.276;2023-07-16T02:23:49;100236.78;;;21.93;55.89
64739;BME280;51175;51.186;0.276;2023-07-16T02:24:19;100236.03;;;21.92;55.79
64739;BME280;51175;51.186;0.276;2023-07-16T02:24:50;100227.97;;;21.92;55.57
64739;BME280;51175;51.186;0.276;2023-07-16T02:25:20;100227.16;;;21.92;55.77
64739;BME280;51175;51.186;0.276;2023-07-16T02:25:50;100231.75;;;21.91;55.75
64739;BME280;51175;51.186;0.276;2023-07-16T02:26:21;100229.06;;;21.91;55.76
64739;BME280;51175;51.186;0.276;2023-07-16T02:26:51;100231.00;;;21.91;55.64
64739;BME280;51175;51.186;0.276;2023-07-16T02:27:21;100231.00;;;21.91;55.73
64739;BME280;51175;51.186;0.276;2023-07-16T02:27:52;100232.53;;;21.92;55.73
64739;BME280;51175;51.186;0.276;2023-07-16T02:28:22;100229.06;;;21.91;55.60
64739;BME280;51175;51.186;0.276;2023-07-16T02:28:53;100231.75;;;21.91;55.71
64739;BME280;51175;51.186;0.276;2023-07-16T02:29:23;100232.53;;;21.92;55.69
64739;BME280;51175;51.186;0.276;2023-07-16T02:29:53;100237.13;;;21.91;55.69
64739;BME280;51175;51.186;0.276;2023-07-16T02:30:24;100228.31;;;21.91;55.80
64739;BME280;51175;51.186;0.276;2023-07-16T02:30:54;100235.22;;;21.92;55.70
64739;BME280;51175;51.186;0.276;2023-07-16T02:31:24;100236.38;;;21.91;55.73
64739;BME280;51175;51.186;0.276;2023-07-16T02:31:55;100237.13;;;21.91;55.74
64739;BME280;51175;51.186;0.276;2023-07-16T02:32:25;100230.19;;;21.90;55.83
64739;BME280;51175;51.186;0.276;2023-07-16T02:32:56;100235.56;;;21.90;55.80
64739;BME280;51175;51.186;0.276;2023-07-16T02:33:26;100237.47;;;21.90;55.70
64739;BME280;51175;51.186;0.276;2023-07-16T02:33:56;100240.16;;;21.90;55.82
64739;BME280;51175;51.186;0.276;2023-07-16T02:34:27;100248.22;;;21.90;55.44
64739;BME280;51175;51.186;0.276;2023-07-16T02:34:57;100237.47;;;21.90;55.59
64739;BME280;51175;51.186;0.276;2023-07-16T02:35:27;100245.53;;;21.90;55.53
64739;BME280;51175;51.186;0.276;2023-07-16T02:35:58;100248.22;;;21.90;55.81
64739;BME280;51175;51.186;0.276;2023-07-16T02:36:28;100239.41;;;21.89;55.47
64739;BME280;51175;51.186;0.276;2023-07-16T02:36:58;100241.28;;;21.89;55.69
64739;BME280;51175;51.186;0.276;2023-07-16T02:37:29;100243.19;;;21.88;55.34
64739;BME280;51175;51.186;0.276;2023-07-16T02:37:59;100243.97;;;21.89;55.37
64739;BME280;51175;51.186;0.276;2023-07-16T02:38:29;100239.75;;;21.88;55.44
64739;BME280;51175;51.186;0.276;2023-07-16T02:39:00;100239.75;;;21.88;55.48
64739;BME280;51175;51.186;0.276;2023-07-16T02:39:30;100243.19;;;21.88;55.52
64739;BME280;51175;51.186;0.276;2023-07-16T02:40:01;100245.13;;;21.88;55.54
64739;BME280;51175;51.186;0.276;2023-07-16T02:40:31;100247.81;;;21.88;55.34
64739;BME280;51175;51.186;0.276;2023-07-16T02:41:01;100253.19;;;21.88;55.43
64739;BME280;51175;51.186;0.276;2023-07-16T02:41:32;100244.31;;;21.87;55.58
64739;BME280;51175;51.186;0.276;2023-07-16T02:42:02;100246.22;;;21.87;55.22
64739;BME280;51175;51.186;0.276;2023-07-16T02:42:33;100247.81;;;21.88;55.52
64739;BME280;51175;51.186;0.276;2023-07-16T02:43:03;100256.97;;;21.87;55.62
64739;BME280;51175;51.186;0.276;2023-07-16T02:43:33;100251.59;;;21.87;55.29
64739;BME280;51175;51.186;0.276;2023-07-16T02:44:05;100246.22;;;21.87;55.31
64739;BME280;51175;51.186;0.276;2023-07-16T02:44:35;100250.84;;;21.86;55.25
64739;BME280;51175;51.186;0.276;2023-07-16T02:45:11;100250.03;;;21.86;55.61
64739;BME280;51175;51.186;0.276;2023-07-16T02:45:42;100251.94;;;21.85;55.48
64739;BME280;51175;51.186;0.276;2023-07-16T02:46:12;100256.22;;;21.86;55.31
64739;BME280;51175;51.186;0.276;2023-07-16T02:46:43;100257.31;;;21.85;55.20
64739;BME280;51175;51.186;0.276;2023-07-16T02:47:14;100256.56;;;21.85;55.47
64739;BME280;51175;51.186;0.276;2023-07-16T02:47:45;100261.16;;;21.84;55.31
64739;BME280;51175;51.186;0.276;2023-07-16T02:48:15;100261.16;;;21.84;55.50
64739;BME280;51175;51.186;0.276;2023-07-16T02:48:46;100248.50;;;21.85;55.54
64739;BME280;51175;51.186;0.276;2023-07-16T02:49:16;100257.31;;;21.85;55.28
64739;BME280;51175;51.186;0.276;2023-07-16T02:49:46;100253.88;;;21.85;55.46
64739;BME280;51175;51.186;0.276;2023-07-16T02:50:20;100253.06;;;21.84;55.37
64739;BME280;51175;51.186;0.276;2023-07-16T02:50:50;100251.19;;;21.85;55.27
64739;BME280;51175;51.186;0.276;2023-07-16T02:51:21;100270.75;;;21.85;55.30